createdAt,value
2018-09-03T00:04:16.295Z,22.9
2018-09-03T00:14:17.709Z,22.9
2018-09-03T00:24:19.467Z,22.9
2018-09-03T00:34:21.527Z,22.8
2018-09-03T00:44:23.269Z,22.8
2018-09-03T00:54:24.804Z,22.8
2018-09-03T01:04:26.532Z,22.8
2018-09-03T01:14:28.411Z,22.8
2018-09-03T01:24:30.226Z,22.8
2018-09-03T01:34:31.981Z,22.8
2018-09-03T01:44:33.829Z,22.8
2018-09-03T01:54:35.569Z,22.7
2018-09-03T02:04:36.943Z,22.7
2018-09-03T02:14:38.953Z,22.7
2018-09-03T02:24:40.495Z,22.7
2018-09-03T02:34:42.151Z,22.7
2018-09-03T02:44:43.935Z,22.7
2018-09-03T02:54:46.623Z,22.6
2018-09-03T03:04:48.797Z,22.6
2018-09-03T03:14:50.963Z,22.6
2018-09-03T03:24:52.957Z,22.6
2018-09-03T03:34:54.806Z,22.6
2018-09-03T03:44:56.662Z,22.6
2018-09-03T03:54:58.810Z,22.6
2018-09-03T04:05:00.486Z,22.5
2018-09-03T04:15:02.523Z,22.5
2018-09-03T04:25:04.864Z,22.5
2018-09-03T04:35:06.864Z,22.5
2018-09-03T04:45:09.341Z,22.5
2018-09-03T04:55:10.853Z,22.5
2018-09-03T05:05:12.476Z,22.5
2018-09-03T05:15:14.044Z,22.5
2018-09-03T05:25:15.647Z,22.4
2018-09-03T05:35:17.475Z,22.5
2018-09-03T05:45:19.667Z,22.5
2018-09-03T05:55:21.752Z,22.5
2018-09-03T06:05:23.847Z,22.7
2018-09-03T06:15:26.087Z,22.9
2018-09-03T06:25:27.824Z,23
2018-09-03T06:35:29.563Z,23.1
2018-09-03T06:45:31.978Z,23.1
2018-09-03T06:55:34.682Z,23.2
2018-09-03T07:05:36.746Z,23.2
2018-09-03T07:15:38.739Z,23.3
2018-09-03T07:25:40.966Z,23.3
2018-09-03T07:35:43.480Z,23.4
2018-09-03T07:45:50.445Z,23.4
2018-09-03T07:55:53.243Z,23.5
2018-09-03T08:05:55.369Z,23.5
2018-09-03T08:15:57.106Z,23.5
2018-09-03T08:25:58.700Z,23.6
2018-09-03T08:36:00.374Z,23.6
2018-09-03T08:46:03.290Z,23.6
2018-09-03T08:56:05.966Z,23.7
2018-09-03T09:06:08.352Z,23.8
2018-09-03T09:16:10.081Z,23.8
2018-09-03T09:26:11.776Z,23.9
2018-09-03T09:36:13.529Z,23.8
2018-09-03T09:46:15.231Z,23.8
2018-09-03T09:56:17.732Z,23.7
2018-09-03T10:06:21.593Z,23.8
2018-09-03T10:16:24.306Z,23.8
2018-09-03T10:26:26.879Z,23.8
2018-09-03T10:36:28.506Z,23.9
2018-09-03T10:46:31.444Z,23.9
2018-09-03T10:56:33.992Z,24
2018-09-03T11:06:36.653Z,24
2018-09-03T11:16:38.441Z,24
2018-09-03T11:26:41.012Z,23.9
2018-09-03T11:36:43.255Z,23.9
2018-09-03T11:46:45.183Z,23.8
2018-09-03T11:56:47.100Z,23.7
2018-09-03T12:06:49.211Z,23.6
2018-09-03T12:16:51.284Z,23.6
2018-09-03T12:26:53.064Z,23.5
2018-09-03T12:36:55.134Z,23.5
2018-09-03T12:46:57.203Z,23.4
2018-09-03T12:56:58.873Z,23.4
2018-09-03T13:07:00.978Z,23.3
2018-09-03T13:17:03.113Z,23.3
2018-09-03T13:27:04.537Z,23.3
2018-09-03T13:37:06.358Z,23.2
2018-09-03T13:47:08.131Z,23.2
2018-09-03T13:57:10.209Z,23.2
2018-09-03T14:07:12.343Z,23.1
2018-09-03T14:17:14.150Z,23.1
2018-09-03T14:27:17.546Z,23.1
2018-09-03T14:37:19.239Z,23.1
2018-09-03T14:47:20.885Z,23.1
2018-09-03T14:57:23.021Z,23.1
2018-09-03T15:07:24.883Z,23
2018-09-03T15:17:26.329Z,23
2018-09-03T15:27:28.472Z,23.1
2018-09-03T15:37:30.247Z,23.1
2018-09-03T15:47:32.544Z,23.1
2018-09-03T15:57:34.490Z,23.1
2018-09-03T16:07:36.303Z,23.1
2018-09-03T16:17:38.324Z,23.1
2018-09-03T16:27:40.568Z,23
2018-09-03T16:37:42.499Z,23
2018-09-03T16:47:44.873Z,23
2018-09-03T16:57:46.512Z,23
2018-09-03T17:07:48.344Z,23
2018-09-03T17:17:50.443Z,22.9
2018-09-03T17:27:52.661Z,22.9
2018-09-03T17:37:54.399Z,22.9
2018-09-03T17:47:56.820Z,22.9
2018-09-03T17:57:58.503Z,22.9
2018-09-03T18:08:00.416Z,22.8
2018-09-03T18:18:02.334Z,22.8
2018-09-03T18:28:04.522Z,22.8
2018-09-03T18:38:05.945Z,22.8
2018-09-03T18:48:08.051Z,22.8
2018-09-03T18:58:09.818Z,22.8
2018-09-03T19:08:12.042Z,22.8
2018-09-03T19:18:13.943Z,22.8
2018-09-03T19:28:15.684Z,22.8
2018-09-03T19:38:17.720Z,22.7
2018-09-03T19:48:19.926Z,22.7
2018-09-03T19:58:22.099Z,22.7
2018-09-03T20:08:24.185Z,22.7
2018-09-03T20:18:26.525Z,22.7
2018-09-03T20:28:28.124Z,22.7
2018-09-03T20:38:30.408Z,22.7
2018-09-03T20:48:32.073Z,22.7
2018-09-03T20:58:34.482Z,22.7
2018-09-03T21:08:36.369Z,22.7
2018-09-03T21:18:38.197Z,22.7
2018-09-03T21:28:39.967Z,22.7
2018-09-03T21:38:42.362Z,22.7
2018-09-03T21:48:44.132Z,22.7
2018-09-03T21:58:45.733Z,22.7
2018-09-03T22:08:47.435Z,22.7
2018-09-03T22:18:49.703Z,22.6
2018-09-03T22:28:51.825Z,22.6
2018-09-03T22:38:53.601Z,22.6
2018-09-03T22:48:56.763Z,22.6
2018-09-03T22:58:58.515Z,22.6
2018-09-03T23:09:00.574Z,22.6
2018-09-03T23:19:02.200Z,22.6
2018-09-03T23:29:03.823Z,22.6
2018-09-03T23:39:05.584Z,22.6
2018-09-03T23:49:07.323Z,22.6
2018-09-03T23:59:09.089Z,22.6
